Time;durP1;ratioP1;P1;durP2;ratioP2;P2;SDS_P1;SDS_P2;PMS_P1;PMS_P2;Temp;Humidity;BMP_temperature;BMP_pressure;BME280_temperature;BME280_humidity;BME280_pressure;Samples;Min_cycle;Max_cycle;Signal;HPM_P1;HPM_P2
2021/08/17 00:02:18;;;;;;;5.45;3.72;;;;;;;13.47;71.66;99227.28;2618115;54;20078;-71
2021/08/17 00:04:48;;;;;;;6.30;3.85;;;;;;;13.38;71.80;99231.13;2617951;54;20027;-71
2021/08/17 00:07:18;;;;;;;7.30;4.00;;;;;;;13.33;71.45;99228.25;2617111;47;20034;-72
2021/08/17 00:09:51;;;;;;;6.47;4.57;;;;;;;13.38;71.33;99231.94;2617881;54;20657;-72
2021/08/17 00:12:21;;;;;;;6.55;3.60;;;;;;;13.46;71.36;99232.78;2617816;54;20042;-71
2021/08/17 00:14:51;;;;;;;6.35;4.07;;;;;;;13.45;71.36;99228.50;2617735;54;20050;-71
2021/08/17 00:17:20;;;;;;;6.45;4.07;;;;;;;13.47;71.18;99231.75;2617395;54;20557;-71
2021/08/17 00:19:50;;;;;;;6.47;3.63;;;;;;;13.43;70.98;99231.38;2617042;47;20030;-71
2021/08/17 00:22:22;;;;;;;7.63;4.15;;;;;;;13.44;70.79;99225.03;2617595;54;20102;-72
2021/08/17 00:24:55;;;;;;;6.13;3.92;;;;;;;13.40;71.00;99229.09;2616427;47;20158;-71
2021/08/17 00:27:25;;;;;;;6.63;3.72;;;;;;;13.34;71.14;99232.53;2617258;54;20081;-71
2021/08/17 00:29:54;;;;;;;6.75;4.05;;;;;;;13.34;71.06;99237.84;2617773;54;20125;-71
2021/08/17 00:32:24;;;;;;;10.10;5.07;;;;;;;13.17;71.49;99236.53;2618501;31;20550;-72
2021/08/17 00:34:54;;;;;;;7.97;4.45;;;;;;;12.94;72.04;99232.38;2617604;54;20042;-72
2021/08/17 00:37:23;;;;;;;8.25;5.15;;;;;;;12.78;72.66;99230.06;2617581;39;20474;-72
2021/08/17 00:39:55;;;;;;;8.05;5.07;;;;;;;12.55;73.20;99232.97;2617655;54;20078;-72
2021/08/17 00:42:26;;;;;;;8.20;4.97;;;;;;;12.53;73.83;99233.19;2617845;54;20098;-72
2021/08/17 00:44:55;;;;;;;10.07;5.15;;;;;;;12.61;73.73;99227.72;2618346;54;20561;-71
2021/08/17 00:47:25;;;;;;;10.40;5.07;;;;;;;12.59;73.83;99228.91;2618098;54;20022;-72
2021/08/17 00:49:54;;;;;;;6.07;4.30;;;;;;;12.70;73.59;99222.25;2617867;47;20034;-71
2021/08/17 00:52:24;;;;;;;8.13;4.88;;;;;;;12.77;73.77;99221.25;2618264;54;20034;-71
2021/08/17 00:54:56;;;;;;;9.45;5.28;;;;;;;12.78;73.10;99228.22;2617756;47;20158;-71
2021/08/17 00:57:26;;;;;;;7.55;4.35;;;;;;;12.73;73.67;99229.81;2617922;54;20038;-71
2021/08/17 00:59:56;;;;;;;8.90;4.30;;;;;;;12.77;73.74;99231.06;2618531;54;20550;-71
2021/08/17 01:02:26;;;;;;;5.95;4.57;;;;;;;12.78;73.75;99230.06;2617901;51;20089;-71
2021/08/17 01:04:55;;;;;;;7.78;3.83;;;;;;;12.86;73.56;99227.25;2617646;47;20027;-71
2021/08/17 01:07:25;;;;;;;6.78;3.80;;;;;;;12.88;72.77;99231.31;2617563;47;20586;-71
2021/08/17 01:09:57;;;;;;;10.20;4.53;;;;;;;12.89;72.85;99222.34;2617395;47;20034;-72
2021/08/17 01:12:26;;;;;;;5.88;3.80;;;;;;;12.93;72.55;99222.75;2624404;47;20039;-72
2021/08/17 01:14:56;;;;;;;7.22;4.57;;;;;;;12.96;72.50;99214.41;2622073;54;20044;-72
2021/08/17 01:17:25;;;;;;;10.77;5.32;;;;;;;13.01;71.99;99219.13;2617989;54;20030;-71
2021/08/17 01:19:55;;;;;;;9.52;5.13;;;;;;;12.99;71.75;99221.16;2617710;47;20031;-70
2021/08/17 01:22:24;;;;;;;5.97;4.25;;;;;;;12.98;71.69;99214.19;2618315;54;20118;-71
2021/08/17 01:24:57;;;;;;;12.50;5.03;;;;;;;12.98;71.58;99222.16;2618029;39;20445;-72
2021/08/17 01:27:29;;;;;;;9.55;4.45;;;;;;;12.99;71.84;99215.88;2617840;54;20035;-71
2021/08/17 01:29:59;;;;;;;8.27;4.95;;;;;;;12.99;71.94;99223.81;2618374;54;20126;-71
2021/08/17 01:32:28;;;;;;;7.10;5.00;;;;;;;12.92;71.53;99231.75;2618806;39;20810;-71
2021/08/17 01:34:58;;;;;;;7.55;5.05;;;;;;;12.91;71.89;99232.78;2618229;54;20106;-71
2021/08/17 01:37:27;;;;;;;7.70;4.70;;;;;;;12.92;71.60;99231.75;2618000;54;20062;-71
2021/08/17 01:40:02;;;;;;;8.75;4.65;;;;;;;12.93;71.72;99235.22;2617527;47;20122;-71
2021/08/17 01:42:34;;;;;;;8.98;5.05;;;;;;;12.93;71.12;99238.69;2617609;54;20580;-71
2021/08/17 01:45:04;;;;;;;8.32;4.90;;;;;;;12.91;71.13;99247.88;2617486;47;20054;-71
2021/08/17 01:47:34;;;;;;;8.95;5.10;;;;;;;12.93;71.00;99246.66;2617814;54;20067;-71
2021/08/17 01:50:04;;;;;;;5.90;4.55;;;;;;;12.91;71.43;99250.53;2618060;54;20030;-71
2021/08/17 01:52:34;;;;;;;9.45;4.68;;;;;;;12.90;71.03;99244.41;2618464;54;20034;-71
2021/08/17 01:55:07;;;;;;;11.98;5.28;;;;;;;12.83;70.89;99244.38;2618148;54;20545;-71
2021/08/17 01:57:40;;;;;;;7.55;4.60;;;;;;;12.85;71.46;99247.63;2617700;54;20022;-71
2021/08/17 02:00:11;;;;;;;7.50;4.88;;;;;;;12.79;71.21;99251.06;2618054;54;20129;-71
2021/08/17 02:02:41;;;;;;;8.40;5.10;;;;;;;12.77;71.10;99253.09;2617406;47;20074;-72
2021/08/17 02:05:12;;;;;;;11.00;5.50;;;;;;;12.76;71.29;99264.72;2617950;54;20049;-71
2021/08/17 02:07:42;;;;;;;7.13;5.18;;;;;;;12.78;71.67;99260.06;2617828;54;20034;-71
2021/08/17 02:10:13;;;;;;;8.10;5.07;;;;;;;12.78;71.13;99259.25;2617931;54;20038;-71
2021/08/17 02:12:45;;;;;;;7.97;5.15;;;;;;;12.78;71.40;99260.06;2618016;54;20030;-71
2021/08/17 02:15:17;;;;;;;6.82;4.88;;;;;;;12.76;71.43;99267.38;2618048;54;20806;-71
2021/08/17 02:17:47;;;;;;;7.93;5.07;;;;;;;12.74;71.11;99272.06;2616925;47;20045;-71
2021/08/17 02:20:17;;;;;;;11.30;5.72;;;;;;;12.76;71.09;99270.03;2617948;54;20542;-71
2021/08/17 02:22:47;;;;;;;9.90;5.50;;;;;;;12.77;71.59;99270.84;2618083;54;20077;-71
2021/08/17 02:25:16;;;;;;;8.52;5.65;;;;;;;12.75;71.51;99262.28;2618297;39;20538;-71
2021/08/17 02:27:48;;;;;;;11.23;5.55;;;;;;;12.75;71.71;99272.88;2617945;54;20701;-71
2021/08/17 02:30:18;;;;;;;6.78;4.93;;;;;;;12.70;71.72;99278.78;2618021;54;20581;-71
2021/08/17 02:32:48;;;;;;;6.70;4.32;;;;;;;12.68;71.56;99285.28;2617914;54;20034;-71
2021/08/17 02:35:17;;;;;;;8.85;4.63;;;;;;;12.60;71.53;99280.94;2617853;54;20073;-71
2021/08/17 02:37:47;;;;;;;7.95;4.75;;;;;;;12.58;71.77;99285.63;2616895;47;20034;-71
2021/08/17 02:40:17;;;;;;;10.38;5.35;;;;;;;12.54;71.89;99277.25;2617881;54;20031;-71
2021/08/17 02:42:49;;;;;;;7.68;4.85;;;;;;;12.48;71.91;99290.44;2617830;54;20042;-72
2021/08/17 02:45:19;;;;;;;8.20;4.95;;;;;;;12.40;72.17;99284.25;2617775;54;20038;-71
2021/08/17 02:47:48;;;;;;;9.95;5.85;;;;;;;12.34;71.93;99290.34;2617661;54;20078;-72
2021/08/17 02:50:18;;;;;;;8.52;5.40;;;;;;;12.18;72.54;99285.31;2617863;54;20086;-73
2021/08/17 02:52:48;;;;;;;12.77;5.38;;;;;;;12.10;73.10;99288.09;2617951;54;20027;-72
2021/08/17 02:55:17;;;;;;;10.52;5.15;;;;;;;12.13;73.08;99285.91;2617473;46;20038;-72
2021/08/17 02:57:54;;;;;;;8.88;5.40;;;;;;;12.26;72.74;99285.19;2617554;54;20063;-72
2021/08/17 03:00:25;;;;;;;10.38;5.63;;;;;;;12.32;72.70;99276.44;2617934;54;20118;-72
2021/08/17 03:02:55;;;;;;;9.20;4.97;;;;;;;12.33;72.37;99278.13;2618017;47;20050;-72
2021/08/17 03:05:25;;;;;;;9.45;4.97;;;;;;;12.36;72.60;99279.53;2617616;54;20037;-73
2021/08/17 03:08:00;;;;;;;8.52;5.38;;;;;;;12.37;72.74;99279.38;2617636;54;20565;-72
2021/08/17 03:10:30;;;;;;;9.80;6.15;;;;;;;12.30;72.24;99270.53;2617363;47;20066;-71
2021/08/17 03:13:03;;;;;;;8.65;5.43;;;;;;;12.11;72.22;99269.34;2618006;54;20121;-72
2021/08/17 03:15:34;;;;;;;9.10;5.87;;;;;;;12.05;72.89;99270.13;2617928;54;20023;-72
2021/08/17 03:18:06;;;;;;;10.32;5.75;;;;;;;12.07;73.23;99268.09;2617591;54;20091;-72
2021/08/17 03:20:37;;;;;;;9.07;5.32;;;;;;;11.97;73.13;99267.63;2617966;54;20038;-72
2021/08/17 03:23:07;;;;;;;10.52;5.88;;;;;;;11.86;73.46;99271.56;2617880;54;20046;-72
2021/08/17 03:25:37;;;;;;;11.35;5.65;;;;;;;11.79;73.15;99268.00;2617978;54;20062;-72
2021/08/17 03:28:09;;;;;;;9.20;5.68;;;;;;;11.77;73.46;99267.38;2617541;54;20588;-72
2021/08/17 03:30:39;;;;;;;9.35;6.28;;;;;;;11.82;73.68;99259.69;2617754;54;20154;-72
2021/08/17 03:33:08;;;;;;;10.02;5.97;;;;;;;11.84;73.40;99265.66;2617280;47;20039;-72
2021/08/17 03:35:38;;;;;;;10.43;5.82;;;;;;;11.77;73.80;99261.28;2617808;54;20078;-72
2021/08/17 03:38:07;;;;;;;9.40;6.35;;;;;;;11.79;73.94;99262.72;2617504;54;20159;-72
2021/08/17 03:40:37;;;;;;;14.02;9.07;;;;;;;11.69;74.00;99267.50;2618228;39;20518;-72
2021/08/17 03:43:09;;;;;;;10.38;7.13;;;;;;;11.73;74.28;99275.91;2617823;54;20137;-72
2021/08/17 03:45:39;;;;;;;12.93;7.30;;;;;;;11.73;74.67;99263.47;2617691;54;20082;-71
2021/08/17 03:48:09;;;;;;;11.65;6.90;;;;;;;11.76;74.49;99262.28;2617608;54;20045;-72
2021/08/17 03:50:38;;;;;;;14.57;8.43;;;;;;;11.83;74.70;99274.59;2617831;54;20065;-72
2021/08/17 03:53:08;;;;;;;12.13;8.57;;;;;;;11.85;74.28;99274.44;2617934;54;20118;-72
2021/08/17 03:55:37;;;;;;;10.93;6.78;;;;;;;11.82;73.91;99272.13;2617497;47;20113;-72
2021/08/17 03:58:09;;;;;;;11.63;7.38;;;;;;;11.63;74.14;99282.34;2622622;54;20099;-72
2021/08/17 04:00:39;;;;;;;13.32;7.25;;;;;;;11.64;74.26;99286.63;2623549;54;20063;-72
2021/08/17 04:03:09;;;;;;;12.63;7.38;;;;;;;11.71;74.60;99278.72;2617999;54;20038;-72
2021/08/17 04:05:38;;;;;;;15.75;8.68;;;;;;;11.78;74.37;99279.63;2617183;54;20030;-73
2021/08/17 04:08:08;;;;;;;19.50;10.07;;;;;;;11.88;74.16;99285.47;2617584;54;20114;-72
2021/08/17 04:10:38;;;;;;;13.63;8.57;;;;;;;11.93;74.05;99284.91;2617801;54;20117;-72
2021/08/17 04:13:10;;;;;;;15.73;8.27;;;;;;;11.90;73.61;99278.13;2617701;54;20049;-72
2021/08/17 04:15:40;;;;;;;12.55;8.13;;;;;;;11.83;73.67;99289.69;2618717;31;20550;-71
2021/08/17 04:18:10;;;;;;;13.77;8.32;;;;;;;11.81;74.04;99295.13;2618546;47;20065;-71
2021/08/17 04:20:39;;;;;;;15.90;9.63;;;;;;;11.83;74.31;99298.44;2620280;47;20086;-72
2021/08/17 04:23:09;;;;;;;15.70;9.93;;;;;;;11.88;73.97;99301.38;2620299;39;20495;-72
2021/08/17 04:25:38;;;;;;;16.17;9.30;;;;;;;11.91;73.98;99300.16;2618819;54;20167;-72
2021/08/17 04:28:10;;;;;;;18.35;9.55;;;;;;;11.98;73.33;99310.81;2618927;54;20057;-71
2021/08/17 04:30:40;;;;;;;15.32;9.18;;;;;;;12.02;73.43;99309.44;2619081;54;20030;-72
2021/08/17 04:33:10;;;;;;;15.02;8.65;;;;;;;12.05;73.32;99309.06;2618436;54;20041;-72
2021/08/17 04:35:39;;;;;;;17.92;10.48;;;;;;;12.06;73.46;99313.34;2618625;54;20053;-72
2021/08/17 04:38:09;;;;;;;18.70;10.82;;;;;;;12.09;73.26;99303.19;2619410;54;20054;-72
2021/08/17 04:40:38;;;;;;;20.40;12.18;;;;;;;12.12;72.84;99312.56;2619575;54;20095;-72
2021/08/17 04:43:11;;;;;;;21.77;12.18;;;;;;;12.17;72.73;99301.44;2618776;47;20038;-72
2021/08/17 04:45:41;;;;;;;21.13;12.17;;;;;;;12.24;72.94;99304.94;2619898;54;20121;-72
2021/08/17 04:48:11;;;;;;;17.52;10.93;;;;;;;12.29;72.93;99310.50;2619530;54;20047;-72
2021/08/17 04:50:40;;;;;;;15.70;9.55;;;;;;;12.29;73.19;99313.97;2619383;54;20038;-72
2021/08/17 04:53:09;;;;;;;16.75;10.38;;;;;;;12.37;72.79;99308.53;2619440;54;20151;-71
2021/08/17 04:55:39;;;;;;;18.50;11.55;;;;;;;12.45;72.58;99301.44;2619712;54;20030;-72
2021/08/17 04:58:11;;;;;;;15.32;10.20;;;;;;;12.42;72.27;99301.84;2619499;31;20527;-72
2021/08/17 05:00:47;;;;;;;15.02;9.80;;;;;;;12.38;72.28;99315.47;2619312;54;20162;-72
2021/08/17 05:03:18;;;;;;;15.50;9.68;;;;;;;12.46;72.52;99313.69;2619489;54;20026;-72
2021/08/17 05:05:48;;;;;;;16.90;10.00;;;;;;;12.48;72.17;99301.06;2619621;54;20118;-72
2021/08/17 05:08:17;;;;;;;22.48;15.07;;;;;;;12.62;72.68;99316.06;2619692;54;20522;-72
2021/08/17 05:10:47;;;;;;;16.90;9.50;;;;;;;12.74;72.06;99311.06;2619683;54;20039;-72
2021/08/17 05:13:19;;;;;;;20.55;10.65;;;;;;;12.78;71.89;99312.31;2619498;54;20026;-72
2021/08/17 05:15:49;;;;;;;17.38;10.45;;;;;;;12.83;71.58;99326.59;2619605;54;20034;-73
2021/08/17 05:18:18;;;;;;;18.60;11.77;;;;;;;12.78;71.14;99329.03;2619693;54;20034;-72
2021/08/17 05:20:48;;;;;;;22.02;12.50;;;;;;;12.76;71.63;99335.53;2619910;54;20035;-72
2021/08/17 05:23:17;;;;;;;21.08;11.73;;;;;;;12.73;72.15;99338.56;2619894;54;20117;-73
2021/08/17 05:25:47;;;;;;;22.60;13.05;;;;;;;12.72;72.38;99335.09;2619669;54;20562;-73
2021/08/17 05:28:19;;;;;;;19.45;11.35;;;;;;;12.75;72.00;99333.91;2619258;54;20023;-72
2021/08/17 05:30:48;;;;;;;20.25;11.63;;;;;;;12.81;72.33;99336.59;2618821;54;20047;-72
2021/08/17 05:33:18;;;;;;;19.92;12.48;;;;;;;12.84;72.29;99333.53;2617917;47;20078;-72
2021/08/17 05:35:48;;;;;;;21.55;12.93;;;;;;;12.91;72.27;99325.63;2618268;54;20058;-72
2021/08/17 05:38:17;;;;;;;20.08;12.10;;;;;;;12.96;72.22;99320.56;2618189;54;20094;-74
2021/08/17 05:40:51;;;;;;;18.90;12.52;;;;;;;12.99;72.47;99320.19;2618187;54;20022;-71
2021/08/17 05:43:23;;;;;;;24.05;14.40;;;;;;;13.07;72.58;99329.81;2618397;54;20155;-71
2021/08/17 05:46:07;;;;;;;21.73;12.38;;;;;;;13.07;72.94;99332.47;2619186;39;20391;-71
2021/08/17 05:48:41;;;;;;;19.92;13.02;;;;;;;13.09;72.78;99341.88;2617998;54;20031;-71
2021/08/17 05:51:10;;;;;;;23.88;13.93;;;;;;;13.11;72.30;99336.38;2618547;54;20030;-71
2021/08/17 05:53:40;;;;;;;22.65;12.88;;;;;;;13.11;72.73;99339.84;2618226;54;20101;-71
2021/08/17 05:56:09;;;;;;;23.55;13.93;;;;;;;13.14;72.86;99349.25;2618662;54;20082;-72
2021/08/17 05:58:41;;;;;;;23.88;14.98;;;;;;;13.17;72.88;99346.19;2617820;54;20147;-71
2021/08/17 06:01:11;;;;;;;22.00;13.60;;;;;;;13.24;72.39;99346.28;2618580;39;20555;-71
2021/08/17 06:03:53;;;;;;;26.33;16.63;;;;;;;13.38;72.25;99355.94;2618220;46;20058;-71
2021/08/17 06:06:22;;;;;;;22.77;13.60;;;;;;;13.53;72.49;99356.63;2617813;54;20035;-71
2021/08/17 06:08:53;;;;;;;22.02;13.65;;;;;;;13.69;71.99;99360.78;2618259;54;20078;-71
2021/08/17 06:11:22;;;;;;;22.02;13.68;;;;;;;13.79;72.25;99363.03;2618289;54;20035;-71
2021/08/17 06:13:54;;;;;;;21.70;14.05;;;;;;;13.84;71.91;99365.94;2619173;39;20860;-71
2021/08/17 06:16:24;;;;;;;21.15;13.40;;;;;;;13.85;71.97;99359.59;2618116;54;20858;-71
2021/08/17 06:18:54;;;;;;;25.33;13.93;;;;;;;13.78;71.05;99369.38;2618575;54;20033;-71
2021/08/17 06:21:24;;;;;;;23.90;14.55;;;;;;;13.75;71.01;99356.50;2618547;54;20031;-70
2021/08/17 06:23:53;;;;;;;20.63;13.20;;;;;;;13.78;71.31;99354.25;2617115;47;20035;-70
2021/08/17 06:26:23;;;;;;;22.02;14.88;;;;;;;13.75;70.73;99357.31;2617460;47;20170;-70
2021/08/17 06:28:55;;;;;;;25.20;15.25;;;;;;;13.83;70.72;99361.63;2618503;54;20145;-70
2021/08/17 06:31:24;;;;;;;23.17;14.73;;;;;;;13.87;70.57;99360.22;2618944;39;21002;-70
2021/08/17 06:33:56;;;;;;;24.38;14.18;;;;;;;13.98;70.78;99367.59;2618454;54;20542;-70
2021/08/17 06:36:26;;;;;;;24.00;15.00;;;;;;;14.00;70.35;99372.72;2618003;54;20038;-70
2021/08/17 06:38:56;;;;;;;21.98;14.68;;;;;;;14.09;70.59;99367.03;2618264;54;20030;-70
2021/08/17 06:41:25;;;;;;;21.30;14.68;;;;;;;14.10;70.47;99367.84;2616471;47;20064;-70
2021/08/17 06:43:57;;;;;;;24.05;15.00;;;;;;;14.25;70.19;99368.50;2617376;54;20578;-70
2021/08/17 06:46:27;;;;;;;19.58;12.77;;;;;;;14.31;70.19;99367.66;2623262;54;20068;-70
2021/08/17 06:48:58;;;;;;;23.65;14.63;;;;;;;14.37;69.36;99368.72;2620257;54;20042;-69
2021/08/17 06:51:27;;;;;;;22.98;14.43;;;;;;;14.33;69.15;99368.28;2617198;54;20134;-70
2021/08/17 06:53:57;;;;;;;20.40;14.30;;;;;;;14.36;69.07;99375.84;2616679;54;20137;-69
2021/08/17 06:56:26;;;;;;;21.35;14.10;;;;;;;14.42;69.35;99360.94;2616483;54;20636;-70
2021/08/17 06:58:58;;;;;;;22.08;13.93;;;;;;;14.61;69.48;99362.81;2616829;54;20118;-70
2021/08/17 07:01:28;;;;;;;23.10;14.05;;;;;;;14.69;69.00;99353.78;2616673;47;20087;-69
2021/08/17 07:03:58;;;;;;;24.63;14.07;;;;;;;14.69;68.40;99347.66;2616616;54;20057;-69
2021/08/17 07:06:28;;;;;;;21.77;15.10;;;;;;;14.76;68.64;99354.59;2616278;47;20619;-69
2021/08/17 07:09:00;;;;;;;22.90;15.27;;;;;;;14.80;68.66;99352.34;2616730;54;20197;-69
2021/08/17 07:11:29;;;;;;;19.60;13.52;;;;;;;14.88;68.74;99353.97;2616712;54;20133;-69
2021/08/17 07:14:01;;;;;;;21.98;14.15;;;;;;;15.04;68.03;99356.22;2616489;47;20047;-68
2021/08/17 07:16:31;;;;;;;26.65;14.25;;;;;;;15.16;67.76;99357.22;2616331;47;20068;-69
2021/08/17 07:19:01;;;;;;;20.40;13.73;;;;;;;15.33;67.45;99362.91;2616627;54;20026;-69
2021/08/17 07:21:30;;;;;;;20.92;14.70;;;;;;;15.40;67.76;99362.88;2617041;54;20065;-68
2021/08/17 07:24:02;;;;;;;24.90;16.08;;;;;;;15.55;67.22;99374.09;2617059;54;20041;-68
2021/08/17 07:26:31;;;;;;;22.83;15.25;;;;;;;15.58;66.42;99363.81;2617621;31;20557;-68
2021/08/17 07:29:03;;;;;;;21.08;14.07;;;;;;;15.68;66.56;99365.28;2617572;39;20411;-68
2021/08/17 07:31:35;;;;;;;19.92;14.68;;;;;;;15.68;66.27;99365.28;2616869;54;20079;-69
2021/08/17 07:34:06;;;;;;;21.63;15.55;;;;;;;15.68;65.68;99371.41;2617688;54;20090;-68
2021/08/17 07:36:37;;;;;;;23.00;15.80;;;;;;;15.62;65.89;99372.22;2617190;54;20075;-69
2021/08/17 07:39:08;;;;;;;22.30;15.75;;;;;;;15.70;66.16;99373.88;2619096;54;20058;-69
2021/08/17 07:41:39;;;;;;;24.13;15.68;;;;;;;15.69;66.17;99372.22;2617904;54;20081;-68
2021/08/17 07:44:11;;;;;;;26.98;17.02;;;;;;;15.74;66.02;99365.22;2616788;54;20035;-68
2021/08/17 07:46:40;;;;;;;26.88;17.55;;;;;;;15.71;65.83;99368.31;2616849;54;20034;-69
2021/08/17 07:49:10;;;;;;;25.30;17.13;;;;;;;15.59;65.85;99375.28;2618002;54;20641;-68
2021/08/17 07:51:40;;;;;;;26.00;17.52;;;;;;;15.45;65.87;99381.72;2618841;39;20395;-68
2021/08/17 07:54:09;;;;;;;24.90;16.73;;;;;;;15.40;66.29;99384.19;2617963;54;20530;-68
2021/08/17 07:56:39;;;;;;;26.70;16.33;;;;;;;15.42;66.07;99382.94;2616961;54;20562;-69
2021/08/17 07:59:11;;;;;;;25.70;16.58;;;;;;;15.52;65.84;99386.00;2617763;54;20610;-69
2021/08/17 08:02:02;;;;;;;24.17;17.15;;;;;;;15.58;65.64;99382.47;2617409;54;20034;-68
2021/08/17 08:04:32;;;;;;;24.70;15.57;;;;;;;15.73;65.71;99376.94;2617082;54;20035;-69
2021/08/17 08:07:02;;;;;;;21.88;15.43;;;;;;;15.92;65.18;99385.03;2616755;54;20598;-70
2021/08/17 08:09:31;;;;;;;24.30;15.15;;;;;;;16.03;64.96;99379.03;2617695;54;20085;-69
2021/08/17 08:12:01;;;;;;;24.67;16.88;;;;;;;16.13;64.88;99382.06;2617429;54;20027;-69
2021/08/17 08:14:33;;;;;;;24.27;15.77;;;;;;;16.29;64.01;99388.75;2618220;39;20434;-70
2021/08/17 08:17:03;;;;;;;23.77;15.93;;;;;;;16.26;64.31;99391.81;2617853;54;20034;-69
2021/08/17 08:19:33;;;;;;;23.85;16.05;;;;;;;16.17;63.79;99379.78;2617763;54;20055;-68
2021/08/17 08:22:02;;;;;;;20.40;13.52;;;;;;;16.04;63.20;99384.16;2618149;54;20038;-68
2021/08/17 08:24:32;;;;;;;21.83;14.55;;;;;;;16.12;63.61;99388.41;2617956;54;20038;-68
2021/08/17 08:27:02;;;;;;;23.75;15.15;;;;;;;16.15;62.84;99390.66;2617801;54;20069;-68
2021/08/17 08:29:35;;;;;;;19.92;13.23;;;;;;;16.17;62.95;99387.78;2618515;39;20434;-68
2021/08/17 08:32:06;;;;;;;22.75;14.23;;;;;;;16.05;62.37;99396.47;2617497;47;20026;-68
2021/08/17 08:34:36;;;;;;;20.80;14.15;;;;;;;16.04;62.44;99405.50;2617568;54;20030;-68
2021/08/17 08:37:06;;;;;;;19.88;13.85;;;;;;;15.97;62.37;99409.22;2617543;54;20066;-69
2021/08/17 08:39:39;;;;;;;20.05;13.73;;;;;;;16.01;61.87;99405.09;2618347;39;20426;-68
2021/08/17 08:42:12;;;;;;;21.23;13.57;;;;;;;16.04;62.45;99402.84;2618222;39;20442;-68
2021/08/17 08:44:46;;;;;;;19.00;14.13;;;;;;;16.13;62.40;99378.59;2617921;54;20023;-68
2021/08/17 08:47:16;;;;;;;22.45;14.15;;;;;;;16.13;61.98;99382.06;2617622;39;20429;-68
2021/08/17 08:49:46;;;;;;;20.50;14.07;;;;;;;16.07;62.32;99388.22;2617675;54;20037;-68
2021/08/17 08:52:15;;;;;;;23.60;14.50;;;;;;;15.99;61.81;99394.63;2617074;54;20061;-68
2021/08/17 08:54:45;;;;;;;22.10;14.80;;;;;;;15.85;62.30;99379.75;2617746;54;20046;-68
2021/08/17 08:57:15;;;;;;;22.05;14.88;;;;;;;15.82;63.04;99361.50;2617561;54;20038;-68
2021/08/17 08:59:48;;;;;;;21.83;13.65;;;;;;;15.78;62.97;99368.28;2617879;54;20090;-69
2021/08/17 09:02:19;;;;;;;22.27;14.67;;;;;;;15.79;62.91;99367.25;2617582;47;20034;-68
2021/08/17 09:04:53;;;;;;;20.45;13.88;;;;;;;15.80;63.43;99366.25;2620390;54;20272;-68
2021/08/17 09:07:39;;;;;;;18.00;12.65;;;;;;;15.79;63.02;99367.25;2620900;54;20035;-68
2021/08/17 09:10:11;;;;;;;19.13;14.23;;;;;;;15.87;63.12;99371.53;2620155;54;20034;-68
2021/08/17 09:12:43;;;;;;;23.35;14.02;;;;;;;15.98;62.63;99382.34;2618152;47;20038;-69
2021/08/17 09:15:18;;;;;;;22.45;14.88;;;;;;;16.00;62.97;99374.97;2618705;54;20045;-68
2021/08/17 09:18:00;;;;;;;23.50;15.18;;;;;;;16.06;62.66;99373.28;2618133;54;20034;-69
2021/08/17 09:20:33;;;;;;;24.42;16.67;;;;;;;16.06;62.97;99381.28;2618051;54;20046;-70
2021/08/17 09:23:29;;;;;;;19.45;13.95;;;;;;;16.18;62.89;99374.22;2618779;54;20039;-69
2021/08/17 09:26:01;;;;;;;21.70;14.05;;;;;;;16.39;62.63;99365.06;2617998;47;20034;-69
2021/08/17 09:28:37;;;;;;;23.02;14.82;;;;;;;16.54;62.16;99378.09;2617964;39;20411;-69
2021/08/17 09:31:33;;;;;;;23.02;15.30;;;;;;;16.67;62.08;99364.63;2617915;54;20061;-70
2021/08/17 09:34:03;;;;;;;24.40;14.43;;;;;;;16.80;62.00;99382.41;2619744;46;20534;-70
2021/08/17 09:36:38;;;;;;;21.30;13.68;;;;;;;16.93;61.50;99376.13;2619656;54;20027;-70
2021/08/17 09:39:09;;;;;;;22.17;14.52;;;;;;;17.09;60.91;99376.38;2617625;47;20039;-68
2021/08/17 09:41:39;;;;;;;20.95;15.00;;;;;;;17.11;59.97;99372.69;2618185;54;20031;-68
2021/08/17 09:44:11;;;;;;;20.02;14.05;;;;;;;17.18;60.03;99366.22;2618244;54;20030;-68
2021/08/17 09:46:44;;;;;;;22.00;14.57;;;;;;;17.23;59.28;99357.56;2618283;54;20038;-69
2021/08/17 09:49:25;;;;;;;22.65;14.68;;;;;;;17.26;59.01;99359.78;2618637;54;20030;-69
2021/08/17 09:51:56;;;;;;;20.58;13.23;;;;;;;17.38;58.88;99359.84;2618491;54;20034;-69
2021/08/17 09:54:27;;;;;;;19.48;13.07;;;;;;;17.53;58.84;99361.09;2621693;54;20030;-69
2021/08/17 09:56:59;;;;;;;19.13;12.82;;;;;;;17.73;58.59;99347.50;2623308;54;20038;-69
2021/08/17 09:59:31;;;;;;;21.42;13.82;;;;;;;17.79;58.26;99343.13;2624759;54;20062;-68
2021/08/17 10:02:03;;;;;;;17.70;12.55;;;;;;;17.72;57.34;99343.19;2625122;54;20038;-71
2021/08/17 10:04:34;;;;;;;17.15;12.50;;;;;;;17.54;58.10;99348.56;2625905;54;20042;-70
2021/08/17 10:07:06;;;;;;;18.05;13.05;;;;;;;17.44;58.60;99345.59;2624808;54;20023;-70
2021/08/17 10:09:37;;;;;;;17.92;12.65;;;;;;;17.41;58.05;99344.19;2625674;54;20035;-69
2021/08/17 10:12:08;;;;;;;16.63;11.95;;;;;;;17.27;57.77;99348.88;2623770;47;20058;-68
2021/08/17 10:14:38;;;;;;;20.00;12.95;;;;;;;17.36;58.04;99337.88;2623357;54;20537;-70
2021/08/17 10:17:10;;;;;;;19.73;13.15;;;;;;;17.49;57.38;99343.88;2623517;47;20062;-70
2021/08/17 10:19:40;;;;;;;19.98;13.25;;;;;;;17.62;57.97;99339.41;2625398;54;20026;-69
2021/08/17 10:22:10;;;;;;;18.42;12.20;;;;;;;17.85;57.71;99325.38;2625931;54;20030;-69
2021/08/17 10:24:44;;;;;;;16.88;12.15;;;;;;;18.08;56.51;99320.06;2625031;54;20035;-70
2021/08/17 10:27:27;;;;;;;18.88;12.50;;;;;;;18.16;56.02;99316.25;2624030;54;20122;-70
2021/08/17 10:29:59;;;;;;;19.35;13.93;;;;;;;18.24;55.79;99311.38;2618083;47;20048;-70
2021/08/17 10:32:42;;;;;;;16.45;11.65;;;;;;;18.20;54.17;99304.88;2618405;54;20039;-68
2021/08/17 10:35:34;;;;;;;17.75;11.80;;;;;;;18.24;54.93;99302.53;2617698;54;20096;-69
2021/08/17 10:38:34;;;;;;;18.00;11.82;;;;;;;18.39;55.19;99286.88;2617662;54;20030;-69
2021/08/17 10:41:09;;;;;;;14.77;11.50;;;;;;;18.60;55.10;99298.88;2618124;54;20113;-70
2021/08/17 10:44:17;;;;;;;15.70;11.07;;;;;;;18.61;54.08;99292.44;2617908;54;20026;-68
2021/08/17 10:46:50;;;;;;;15.23;10.98;;;;;;;18.91;53.15;99297.72;2616853;54;20078;-68
2021/08/17 10:49:47;;;;;;;15.02;10.20;;;;;;;19.06;52.00;99286.50;2618038;54;20045;-68
2021/08/17 10:52:38;;;;;;;15.25;10.32;;;;;;;19.12;51.78;99280.22;2617901;39;20398;-68
2021/08/17 10:55:27;;;;;;;12.15;9.57;;;;;;;19.17;50.90;99274.94;2617230;47;20035;-69
2021/08/17 10:57:59;;;;;;;11.73;9.27;;;;;;;19.41;51.11;99266.84;2617410;54;20030;-68
2021/08/17 11:00:55;;;;;;;12.68;9.15;;;;;;;19.60;49.99;99270.97;2618001;54;20030;-68
2021/08/17 11:03:50;;;;;;;12.57;9.02;;;;;;;19.78;49.28;99268.09;2617505;47;20026;-68
2021/08/17 11:06:47;;;;;;;11.45;8.10;;;;;;;19.88;47.63;99262.13;2617645;54;20046;-69
2021/08/17 11:09:20;;;;;;;12.00;8.15;;;;;;;19.96;48.23;99255.53;2617766;54;20033;-68
2021/08/17 11:11:55;;;;;;;12.05;8.18;;;;;;;20.11;47.61;99260.34;2618025;54;20023;-68
2021/08/17 11:14:29;;;;;;;11.80;8.27;;;;;;;20.18;47.34;99244.91;2618101;54;20530;-67
2021/08/17 11:17:00;;;;;;;10.05;7.88;;;;;;;20.10;46.79;99254.16;2617601;54;20133;-70
2021/08/17 11:19:32;;;;;;;10.65;7.90;;;;;;;19.96;45.52;99266.25;2617823;54;20041;-69
2021/08/17 11:22:07;;;;;;;11.13;7.88;;;;;;;19.94;46.01;99268.38;2617088;54;20034;-70
2021/08/17 11:24:38;;;;;;;11.13;7.95;;;;;;;20.07;46.07;99264.56;2617761;54;20069;-68
2021/08/17 11:27:09;;;;;;;11.65;7.40;;;;;;;20.23;45.42;99272.63;2617271;54;20101;-67
2021/08/17 11:29:43;;;;;;;11.00;8.23;;;;;;;20.34;45.23;99270.94;2618038;54;20034;-67
2021/08/17 11:32:15;;;;;;;11.18;7.82;;;;;;;20.12;45.45;99276.19;2620519;47;20034;-68
2021/08/17 11:34:45;;;;;;;10.25;7.55;;;;;;;20.06;45.20;99290.59;2621873;54;20606;-68
2021/08/17 11:37:17;;;;;;;8.95;7.22;;;;;;;20.01;44.32;99291.31;2621460;54;20530;-67
2021/08/17 11:39:49;;;;;;;9.15;6.78;;;;;;;20.00;43.83;99284.34;2621173;54;20038;-67
2021/08/17 11:42:21;;;;;;;7.72;5.68;;;;;;;20.19;41.90;99282.22;2618534;54;20059;-67
2021/08/17 11:44:52;;;;;;;8.48;6.70;;;;;;;20.63;41.69;99285.09;2618895;31;20531;-67
2021/08/17 11:47:23;;;;;;;9.57;7.30;;;;;;;20.97;41.36;99274.25;2617784;54;20118;-68